sensor_id;sensor_type;location;lat;lon;timestamp;temperature;humidity
7588;DHT22;3835;48.850;8.938;2023-02-18T00:00:23;10.90;99.90
7588;DHT22;3835;48.850;8.938;2023-02-18T00:02:53;10.90;99.90
7588;DHT22;3835;48.850;8.938;2023-02-18T00:05:21;10.90;99.90
7588;DHT22;3835;48.850;8.938;2023-02-18T00:07:49;10.90;99.90
7588;DHT22;3835;48.850;8.938;2023-02-18T00:10:16;10.90;99.90
7588;DHT22;3835;48.850;8.938;2023-02-18T00:12:45;10.80;99.90
7588;DHT22;3835;48.850;8.938;2023-02-18T00:15:13;10.80;99.90
7588;DHT22;3835;48.850;8.938;2023-02-18T00:17:43;10.80;99.90
7588;DHT22;3835;48.850;8.938;2023-02-18T00:20:14;10.90;99.90
7588;DHT22;3835;48.850;8.938;2023-02-18T00:22:42;10.90;99.90
7588;DHT22;3835;48.850;8.938;2023-02-18T00:25:10;10.90;99.90
7588;DHT22;3835;48.850;8.938;2023-02-18T00:27:38;10.90;99.90
7588;DHT22;3835;48.850;8.938;2023-02-18T00:30:07;10.90;99.90
7588;DHT22;3835;48.850;8.938;2023-02-18T00:32:35;10.90;99.90
7588;DHT22;3835;48.850;8.938;2023-02-18T00:35:03;10.90;99.90
7588;DHT22;3835;48.850;8.938;2023-02-18T00:37:33;10.90;99.90
7588;DHT22;3835;48.850;8.938;2023-02-18T00:40:00;11.00;99.90
7588;DHT22;3835;48.850;8.938;2023-02-18T00:42:29;11.00;99.90
7588;DHT22;3835;48.850;8.938;2023-02-18T00:44:56;11.00;99.90
7588;DHT22;3835;48.850;8.938;2023-02-18T00:47:24;11.00;99.90
7588;DHT22;3835;48.850;8.938;2023-02-18T00:49:52;11.00;99.90
7588;DHT22;3835;48.850;8.938;2023-02-18T00:52:19;10.90;99.90
7588;DHT22;3835;48.850;8.938;2023-02-18T00:54:49;11.00;99.90
7588;DHT22;3835;48.850;8.938;2023-02-18T00:57:19;11.10;99.90
7588;DHT22;3835;48.850;8.938;2023-02-18T00:59:48;11.10;99.90
7588;DHT22;3835;48.850;8.938;2023-02-18T01:02:15;11.00;99.90
7588;DHT22;3835;48.850;8.938;2023-02-18T01:04:43;11.10;99.90
7588;DHT22;3835;48.850;8.938;2023-02-18T01:07:21;11.10;99.90
7588;DHT22;3835;48.850;8.938;2023-02-18T01:09:49;11.10;99.90
7588;DHT22;3835;48.850;8.938;2023-02-18T01:12:18;11.00;99.90
7588;DHT22;3835;48.850;8.938;2023-02-18T01:14:45;11.00;99.90
7588;DHT22;3835;48.850;8.938;2023-02-18T01:17:13;11.00;99.90
7588;DHT22;3835;48.850;8.938;2023-02-18T01:19:41;11.00;99.90
7588;DHT22;3835;48.850;8.938;2023-02-18T01:22:13;10.80;99.90
7588;DHT22;3835;48.850;8.938;2023-02-18T01:24:41;10.90;99.90
7588;DHT22;3835;48.850;8.938;2023-02-18T01:27:13;10.90;99.90
7588;DHT22;3835;48.850;8.938;2023-02-18T01:29:40;10.80;99.90
7588;DHT22;3835;48.850;8.938;2023-02-18T01:32:08;10.80;99.90
7588;DHT22;3835;48.850;8.938;2023-02-18T01:34:35;10.80;99.90
7588;DHT22;3835;48.850;8.938;2023-02-18T01:37:03;10.80;99.90
7588;DHT22;3835;48.850;8.938;2023-02-18T01:39:29;10.70;99.90
7588;DHT22;3835;48.850;8.938;2023-02-18T01:41:56;10.80;99.90
7588;DHT22;3835;48.850;8.938;2023-02-18T01:44:26;10.80;99.90
7588;DHT22;3835;48.850;8.938;2023-02-18T01:46:54;10.80;99.90
7588;DHT22;3835;48.850;8.938;2023-02-18T01:49:24;10.90;99.90
7588;DHT22;3835;48.850;8.938;2023-02-18T01:51:54;10.90;99.90
7588;DHT22;3835;48.850;8.938;2023-02-18T01:54:26;10.90;99.90
7588;DHT22;3835;48.850;8.938;2023-02-18T01:56:55;10.90;99.90
7588;DHT22;3835;48.850;8.938;2023-02-18T01:59:26;10.90;99.90
7588;DHT22;3835;48.850;8.938;2023-02-18T02:01:54;10.90;99.90
7588;DHT22;3835;48.850;8.938;2023-02-18T02:04:21;10.90;99.90
7588;DHT22;3835;48.850;8.938;2023-02-18T02:06:48;10.90;99.90
7588;DHT22;3835;48.850;8.938;2023-02-18T02:09:17;10.90;99.90
7588;DHT22;3835;48.850;8.938;2023-02-18T02:12:13;10.90;99.90
7588;DHT22;3835;48.850;8.938;2023-02-18T02:15:16;10.90;99.90
7588;DHT22;3835;48.850;8.938;2023-02-18T02:17:52;10.90;99.90
7588;DHT22;3835;48.850;8.938;2023-02-18T02:20:43;10.90;99.90
7588;DHT22;3835;48.850;8.938;2023-02-18T02:23:40;10.90;99.90
7588;DHT22;3835;48.850;8.938;2023-02-18T02:26:59;10.90;99.90
7588;DHT22;3835;48.850;8.938;2023-02-18T02:35:38;10.90;99.90
7588;DHT22;3835;48.850;8.938;2023-02-18T02:38:14;10.90;99.90
7588;DHT22;3835;48.850;8.938;2023-02-18T02:40:48;10.90;99.90
7588;DHT22;3835;48.850;8.938;2023-02-18T02:43:23;11.00;99.90
7588;DHT22;3835;48.850;8.938;2023-02-18T02:45:57;11.00;99.90
7588;DHT22;3835;48.850;8.938;2023-02-18T02:48:34;11.10;99.90
7588;DHT22;3835;48.850;8.938;2023-02-18T02:51:08;11.10;99.90
7588;DHT22;3835;48.850;8.938;2023-02-18T02:53:38;11.10;99.90
7588;DHT22;3835;48.850;8.938;2023-02-18T02:56:05;11.10;99.90
7588;DHT22;3835;48.850;8.938;2023-02-18T02:58:32;11.10;99.90
7588;DHT22;3835;48.850;8.938;2023-02-18T03:01:18;11.00;99.90
7588;DHT22;3835;48.850;8.938;2023-02-18T03:04:12;11.00;99.90
7588;DHT22;3835;48.850;8.938;2023-02-18T03:07:00;11.00;99.90
7588;DHT22;3835;48.850;8.938;2023-02-18T03:09:42;11.10;99.90
7588;DHT22;3835;48.850;8.938;2023-02-18T03:12:15;11.10;99.90
7588;DHT22;3835;48.850;8.938;2023-02-18T03:14:52;11.10;99.90
7588;DHT22;3835;48.850;8.938;2023-02-18T03:17:24;11.00;99.90
7588;DHT22;3835;48.850;8.938;2023-02-18T03:19:54;11.00;99.90
7588;DHT22;3835;48.850;8.938;2023-02-18T03:22:28;10.90;99.90
7588;DHT22;3835;48.850;8.938;2023-02-18T03:24:56;10.90;99.90
7588;DHT22;3835;48.850;8.938;2023-02-18T03:27:27;10.90;99.90
7588;DHT22;3835;48.850;8.938;2023-02-18T03:29:58;10.80;99.90
7588;DHT22;3835;48.850;8.938;2023-02-18T03:32:26;10.80;99.90
7588;DHT22;3835;48.850;8.938;2023-02-18T03:34:57;10.80;99.90
7588;DHT22;3835;48.850;8.938;2023-02-18T03:37:28;10.70;99.90
7588;DHT22;3835;48.850;8.938;2023-02-18T03:39:58;10.70;99.90
7588;DHT22;3835;48.850;8.938;2023-02-18T03:42:27;10.70;99.90
7588;DHT22;3835;48.850;8.938;2023-02-18T03:44:54;10.60;99.90
7588;DHT22;3835;48.850;8.938;2023-02-18T03:47:21;10.70;99.90
7588;DHT22;3835;48.850;8.938;2023-02-18T03:49:48;10.70;99.90
7588;DHT22;3835;48.850;8.938;2023-02-18T03:52:15;10.80;99.90
7588;DHT22;3835;48.850;8.938;2023-02-18T03:54:44;10.80;99.90
7588;DHT22;3835;48.850;8.938;2023-02-18T03:57:11;10.80;99.90
7588;DHT22;3835;48.850;8.938;2023-02-18T03:59:38;10.90;99.90
7588;DHT22;3835;48.850;8.938;2023-02-18T04:02:04;10.90;99.90
7588;DHT22;3835;48.850;8.938;2023-02-18T04:04:32;10.90;99.90
7588;DHT22;3835;48.850;8.938;2023-02-18T04:06:58;11.00;99.90
7588;DHT22;3835;48.850;8.938;2023-02-18T04:09:25;11.00;99.90
7588;DHT22;3835;48.850;8.938;2023-02-18T04:11:53;11.00;99.90
7588;DHT22;3835;48.850;8.938;2023-02-18T04:14:20;11.10;99.90
7588;DHT22;3835;48.850;8.938;2023-02-18T04:16:47;11.00;99.90
7588;DHT22;3835;48.850;8.938;2023-02-18T04:19:13;11.00;99.90
7588;DHT22;3835;48.850;8.938;2023-02-18T04:21:40;11.00;99.90
7588;DHT22;3835;48.850;8.938;2023-02-18T04:24:07;11.00;99.90
7588;DHT22;3835;48.850;8.938;2023-02-18T04:26:34;11.00;99.90
7588;DHT22;3835;48.850;8.938;2023-02-18T04:29:02;11.00;99.90
7588;DHT22;3835;48.850;8.938;2023-02-18T04:31:29;11.00;99.90
7588;DHT22;3835;48.850;8.938;2023-02-18T04:33:56;11.00;99.90
7588;DHT22;3835;48.850;8.938;2023-02-18T04:36:23;10.90;99.90
7588;DHT22;3835;48.850;8.938;2023-02-18T04:38:49;10.90;99.90
7588;DHT22;3835;48.850;8.938;2023-02-18T04:41:16;10.90;99.90
7588;DHT22;3835;48.850;8.938;2023-02-18T04:43:43;10.90;99.90
7588;DHT22;3835;48.850;8.938;2023-02-18T04:46:11;10.90;99.90
7588;DHT22;3835;48.850;8.938;2023-02-18T04:48:38;10.80;99.90
7588;DHT22;3835;48.850;8.938;2023-02-18T04:51:05;10.90;99.90
7588;DHT22;3835;48.850;8.938;2023-02-18T04:53:32;10.80;99.90
7588;DHT22;3835;48.850;8.938;2023-02-18T04:56:00;10.80;99.90
7588;DHT22;3835;48.850;8.938;2023-02-18T04:58:27;10.70;99.90
7588;DHT22;3835;48.850;8.938;2023-02-18T05:00:58;10.70;99.90
7588;DHT22;3835;48.850;8.938;2023-02-18T05:03:26;10.60;99.90
7588;DHT22;3835;48.850;8.938;2023-02-18T05:05:53;10.70;99.90
7588;DHT22;3835;48.850;8.938;2023-02-18T05:08:20;10.70;99.90
7588;DHT22;3835;48.850;8.938;2023-02-18T05:10:47;10.70;99.90
7588;DHT22;3835;48.850;8.938;2023-02-18T05:13:14;10.90;99.90
7588;DHT22;3835;48.850;8.938;2023-02-18T05:15:40;10.90;99.90
7588;DHT22;3835;48.850;8.938;2023-02-18T05:18:07;11.00;99.90
7588;DHT22;3835;48.850;8.938;2023-02-18T05:20:35;11.00;99.90
7588;DHT22;3835;48.850;8.938;2023-02-18T05:23:02;11.00;99.90
7588;DHT22;3835;48.850;8.938;2023-02-18T05:25:29;10.90;99.90
7588;DHT22;3835;48.850;8.938;2023-02-18T05:27:56;10.90;99.90
7588;DHT22;3835;48.850;8.938;2023-02-18T05:30:23;11.00;99.90
7588;DHT22;3835;48.850;8.938;2023-02-18T05:32:49;10.90;99.90
7588;DHT22;3835;48.850;8.938;2023-02-18T05:35:16;10.90;99.90
7588;DHT22;3835;48.850;8.938;2023-02-18T05:37:44;10.80;99.90
7588;DHT22;3835;48.850;8.938;2023-02-18T05:40:11;10.80;99.90
7588;DHT22;3835;48.850;8.938;2023-02-18T05:42:38;10.90;99.90
7588;DHT22;3835;48.850;8.938;2023-02-18T05:45:06;10.90;99.90
7588;DHT22;3835;48.850;8.938;2023-02-18T05:47:33;10.80;99.90
7588;DHT22;3835;48.850;8.938;2023-02-18T05:49:59;10.90;99.90
7588;DHT22;3835;48.850;8.938;2023-02-18T05:52:26;10.90;99.90
7588;DHT22;3835;48.850;8.938;2023-02-18T05:54:54;10.90;99.90
7588;DHT22;3835;48.850;8.938;2023-02-18T05:57:21;10.90;99.90
7588;DHT22;3835;48.850;8.938;2023-02-18T05:59:48;10.90;99.90
7588;DHT22;3835;48.850;8.938;2023-02-18T06:02:15;10.90;99.90
7588;DHT22;3835;48.850;8.938;2023-02-18T06:04:42;10.90;99.90
7588;DHT22;3835;48.850;8.938;2023-02-18T06:07:08;10.90;99.90
7588;DHT22;3835;48.850;8.938;2023-02-18T06:09:35;10.90;99.90
7588;DHT22;3835;48.850;8.938;2023-02-18T06:12:04;10.90;99.90
7588;DHT22;3835;48.850;8.938;2023-02-18T06:14:31;10.90;99.90
7588;DHT22;3835;48.850;8.938;2023-02-18T06:16:57;10.90;99.90
7588;DHT22;3835;48.850;8.938;2023-02-18T06:19:24;10.90;99.90
7588;DHT22;3835;48.850;8.938;2023-02-18T06:21:51;10.90;99.90
7588;DHT22;3835;48.850;8.938;2023-02-18T06:24:18;10.80;99.90
7588;DHT22;3835;48.850;8.938;2023-02-18T06:26:45;10.80;99.90
7588;DHT22;3835;48.850;8.938;2023-02-18T06:29:13;10.80;99.90
7588;DHT22;3835;48.850;8.938;2023-02-18T06:31:40;10.80;99.90
7588;DHT22;3835;48.850;8.938;2023-02-18T06:34:06;10.70;99.90
7588;DHT22;3835;48.850;8.938;2023-02-18T06:36:33;10.70;99.90
7588;DHT22;3835;48.850;8.938;2023-02-18T06:39:02;10.90;99.90
7588;DHT22;3835;48.850;8.938;2023-02-18T06:41:29;10.80;99.90
7588;DHT22;3835;48.850;8.938;2023-02-18T06:43:55;10.90;99.90
7588;DHT22;3835;48.850;8.938;2023-02-18T06:46:24;10.90;99.90
7588;DHT22;3835;48.850;8.938;2023-02-18T06:48:50;10.90;99.90
7588;DHT22;3835;48.850;8.938;2023-02-18T06:51:17;11.00;99.90
7588;DHT22;3835;48.850;8.938;2023-02-18T06:53:45;11.00;99.90
7588;DHT22;3835;48.850;8.938;2023-02-18T06:56:11;11.10;99.90
7588;DHT22;3835;48.850;8.938;2023-02-18T06:58:38;11.10;99.90
7588;DHT22;3835;48.850;8.938;2023-02-18T07:01:05;11.10;99.90
7588;DHT22;3835;48.850;8.938;2023-02-18T07:03:33;11.00;99.90
7588;DHT22;3835;48.850;8.938;2023-02-18T07:06:00;11.10;99.90
7588;DHT22;3835;48.850;8.938;2023-02-18T07:08:27;11.10;99.90
7588;DHT22;3835;48.850;8.938;2023-02-18T07:10:55;11.20;99.90
7588;DHT22;3835;48.850;8.938;2023-02-18T07:13:22;11.20;99.90
7588;DHT22;3835;48.850;8.938;2023-02-18T07:15:49;11.20;99.90
7588;DHT22;3835;48.850;8.938;2023-02-18T07:18:15;11.30;99.90
7588;DHT22;3835;48.850;8.938;2023-02-18T07:20:43;11.30;99.90
7588;DHT22;3835;48.850;8.938;2023-02-18T07:23:10;11.30;99.90
7588;DHT22;3835;48.850;8.938;2023-02-18T07:25:37;11.30;99.90
7588;DHT22;3835;48.850;8.938;2023-02-18T07:28:04;11.40;99.90
7588;DHT22;3835;48.850;8.938;2023-02-18T07:30:31;11.40;99.90
7588;DHT22;3835;48.850;8.938;2023-02-18T07:32:57;11.50;99.90
7588;DHT22;3835;48.850;8.938;2023-02-18T07:35:24;11.50;99.90
7588;DHT22;3835;48.850;8.938;2023-02-18T07:37:52;11.50;99.90
7588;DHT22;3835;48.850;8.938;2023-02-18T07:40:20;11.60;99.90
7588;DHT22;3835;48.850;8.938;2023-02-18T07:42:47;11.60;99.90
7588;DHT22;3835;48.850;8.938;2023-02-18T07:45:14;11.70;99.90
7588;DHT22;3835;48.850;8.938;2023-02-18T07:47:41;11.70;99.90
7588;DHT22;3835;48.850;8.938;2023-02-18T07:50:10;11.70;99.90
7588;DHT22;3835;48.850;8.938;2023-02-18T07:52:37;11.80;99.90
7588;DHT22;3835;48.850;8.938;2023-02-18T07:55:06;11.80;99.90
7588;DHT22;3835;48.850;8.938;2023-02-18T07:57:33;11.90;99.90
7588;DHT22;3835;48.850;8.938;2023-02-18T08:00:20;11.90;99.90
7588;DHT22;3835;48.850;8.938;2023-02-18T08:02:46;11.90;99.90
7588;DHT22;3835;48.850;8.938;2023-02-18T08:05:13;11.90;99.90
7588;DHT22;3835;48.850;8.938;2023-02-18T08:07:40;11.90;99.90
7588;DHT22;3835;48.850;8.938;2023-02-18T08:10:08;11.90;99.90
7588;DHT22;3835;48.850;8.938;2023-02-18T08:12:35;11.90;99.90
7588;DHT22;3835;48.850;8.938;2023-02-18T08:15:03;11.90;99.90
7588;DHT22;3835;48.850;8.938;2023-02-18T08:17:29;12.00;99.90
7588;DHT22;3835;48.850;8.938;2023-02-18T08:19:56;12.10;99.90
7588;DHT22;3835;48.850;8.938;2023-02-18T08:22:23;12.10;99.90
7588;DHT22;3835;48.850;8.938;2023-02-18T08:24:50;12.20;99.90
7588;DHT22;3835;48.850;8.938;2023-02-18T08:27:20;12.20;99.90
7588;DHT22;3835;48.850;8.938;2023-02-18T08:29:47;12.20;99.90
7588;DHT22;3835;48.850;8.938;2023-02-18T08:32:14;12.20;99.90
7588;DHT22;3835;48.850;8.938;2023-02-18T08:34:41;12.20;99.90
7588;DHT22;3835;48.850;8.938;2023-02-18T08:37:08;12.30;99.90
7588;DHT22;3835;48.850;8.938;2023-02-18T08:39:35;12.30;99.90
7588;DHT22;3835;48.850;8.938;2023-02-18T08:42:02;12.40;99.90
7588;DHT22;3835;48.850;8.938;2023-02-18T08:44:30;12.40;99.90
7588;DHT22;3835;48.850;8.938;2023-02-18T08:46:57;12.50;99.90
7588;DHT22;3835;48.850;8.938;2023-02-18T08:49:23;12.60;99.90
7588;DHT22;3835;48.850;8.938;2023-02-18T08:51:50;12.60;99.90
7588;DHT22;3835;48.850;8.938;2023-02-18T08:54:17;12.60;99.90
7588;DHT22;3835;48.850;8.938;2023-02-18T08:56:44;12.70;99.90
7588;DHT22;3835;48.850;8.938;2023-02-18T08:59:11;12.70;99.90
7588;DHT22;3835;48.850;8.938;2023-02-18T09:01:39;12.70;99.90
7588;DHT22;3835;48.850;8.938;2023-02-18T09:04:06;12.70;99.90
7588;DHT22;3835;48.850;8.938;2023-02-18T09:06:36;12.70;99.90
7588;DHT22;3835;48.850;8.938;2023-02-18T09:09:03;12.70;99.90
7588;DHT22;3835;48.850;8.938;2023-02-18T09:11:29;12.70;99.90
7588;DHT22;3835;48.850;8.938;2023-02-18T09:13:56;12.80;99.90
7588;DHT22;3835;48.850;8.938;2023-02-18T09:16:23;12.90;99.90
7588;DHT22;3835;48.850;8.938;2023-02-18T09:18:52;13.00;99.90
7588;DHT22;3835;48.850;8.938;2023-02-18T09:21:19;13.00;99.90
7588;DHT22;3835;48.850;8.938;2023-02-18T09:23:47;13.20;99.90
7588;DHT22;3835;48.850;8.938;2023-02-18T09:26:16;13.30;99.90
7588;DHT22;3835;48.850;8.938;2023-02-18T09:28:43;13.20;99.90
7588;DHT22;3835;48.850;8.938;2023-02-18T09:31:12;13.20;99.90
7588;DHT22;3835;48.850;8.938;2023-02-18T09:33:42;13.10;99.90
7588;DHT22;3835;48.850;8.938;2023-02-18T09:36:10;13.10;99.90
7588;DHT22;3835;48.850;8.938;2023-02-18T09:38:37;13.10;99.90
7588;DHT22;3835;48.850;8.938;2023-02-18T09:41:07;13.10;99.90
7588;DHT22;3835;48.850;8.938;2023-02-18T09:43:38;13.10;99.90
7588;DHT22;3835;48.850;8.938;2023-02-18T09:46:16;13.00;99.90
7588;DHT22;3835;48.850;8.938;2023-02-18T09:48:45;13.00;99.90
7588;DHT22;3835;48.850;8.938;2023-02-18T09:51:14;13.10;99.90
7588;DHT22;3835;48.850;8.938;2023-02-18T09:53:42;13.20;99.90
7588;DHT22;3835;48.850;8.938;2023-02-18T09:56:12;13.30;99.90
7588;DHT22;3835;48.850;8.938;2023-02-18T09:58:40;13.30;99.90
7588;DHT22;3835;48.850;8.938;2023-02-18T10:01:14;13.40;99.90
7588;DHT22;3835;48.850;8.938;2023-02-18T10:03:43;13.30;99.90
7588;DHT22;3835;48.850;8.938;2023-02-18T10:06:15;13.30;99.90
7588;DHT22;3835;48.850;8.938;2023-02-18T10:08:45;13.10;99.90
7588;DHT22;3835;48.850;8.938;2023-02-18T10:11:15;13.00;99.90
7588;DHT22;3835;48.850;8.938;2023-02-18T10:13:43;13.00;99.90
7588;DHT22;3835;48.850;8.938;2023-02-18T10:16:17;13.10;99.90
7588;DHT22;3835;48.850;8.938;2023-02-18T10:18:47;13.20;99.90
7588;DHT22;3835;48.850;8.938;2023-02-18T10:21:17;13.30;99.90
7588;DHT22;3835;48.850;8.938;2023-02-18T10:23:52;13.40;99.90
7588;DHT22;3835;48.850;8.938;2023-02-18T10:26:20;13.30;99.90
7588;DHT22;3835;48.850;8.938;2023-02-18T10:28:47;13.40;99.90
7588;DHT22;3835;48.850;8.938;2023-02-18T10:31:17;13.50;99.90
7588;DHT22;3835;48.850;8.938;2023-02-18T10:33:49;13.30;99.90
7588;DHT22;3835;48.850;8.938;2023-02-18T10:36:24;13.30;99.90
7588;DHT22;3835;48.850;8.938;2023-02-18T10:41:54;13.40;99.90
7588;DHT22;3835;48.850;8.938;2023-02-18T10:44:29;13.40;99.90
7588;DHT22;3835;48.850;8.938;2023-02-18T10:47:09;13.30;99.90
7588;DHT22;3835;48.850;8.938;2023-02-18T10:49:55;13.40;99.90
7588;DHT22;3835;48.850;8.938;2023-02-18T10:52:26;13.60;99.90
7588;DHT22;3835;48.850;8.938;2023-02-18T10:55:01;13.60;99.90
7588;DHT22;3835;48.850;8.938;2023-02-18T10:57:30;13.70;99.90
7588;DHT22;3835;48.850;8.938;2023-02-18T11:00:00;13.80;99.90
7588;DHT22;3835;48.850;8.938;2023-02-18T11:02:37;13.70;99.90
7588;DHT22;3835;48.850;8.938;2023-02-18T11:05:17;13.70;99.90
7588;DHT22;3835;48.850;8.938;2023-02-18T11:07:48;13.70;99.90
7588;DHT22;3835;48.850;8.938;2023-02-18T11:10:21;13.80;99.90
7588;DHT22;3835;48.850;8.938;2023-02-18T11:12:50;13.90;99.90
7588;DHT22;3835;48.850;8.938;2023-02-18T11:15:21;13.70;99.90
7588;DHT22;3835;48.850;8.938;2023-02-18T11:17:50;13.50;99.90
7588;DHT22;3835;48.850;8.938;2023-02-18T11:20:28;13.70;99.90
7588;DHT22;3835;48.850;8.938;2023-02-18T11:23:14;13.70;99.90
7588;DHT22;3835;48.850;8.938;2023-02-18T11:25:54;13.60;99.90
7588;DHT22;3835;48.850;8.938;2023-02-18T11:28:39;13.60;99.90
7588;DHT22;3835;48.850;8.938;2023-02-18T11:31:07;13.60;99.90
7588;DHT22;3835;48.850;8.938;2023-02-18T11:33:38;13.60;99.90
7588;DHT22;3835;48.850;8.938;2023-02-18T11:36:16;13.60;99.90
7588;DHT22;3835;48.850;8.938;2023-02-18T11:38:46;13.60;99.90
7588;DHT22;3835;48.850;8.938;2023-02-18T11:41:18;13.50;99.90
7588;DHT22;3835;48.850;8.938;2023-02-18T11:43:48;13.60;99.90
7588;DHT22;3835;48.850;8.938;2023-02-18T11:46:18;13.70;99.90
7588;DHT22;3835;48.850;8.938;2023-02-18T11:48:45;13.60;99.90
7588;DHT22;3835;48.850;8.938;2023-02-18T11:51:17;13.70;99.90
7588;DHT22;3835;48.850;8.938;2023-02-18T11:53:54;13.80;99.90
7588;DHT22;3835;48.850;8.938;2023-02-18T11:56:27;13.60;99.90
7588;DHT22;3835;48.850;8.938;2023-02-18T11:58:54;13.50;99.90
7588;DHT22;3835;48.850;8.938;2023-02-18T12:01:30;13.40;99.90
7588;DHT22;3835;48.850;8.938;2023-02-18T12:04:07;13.50;99.90
7588;DHT22;3835;48.850;8.938;2023-02-18T12:06:41;13.40;99.90
7588;DHT22;3835;48.850;8.938;2023-02-18T12:09:19;13.40;99.90
7588;DHT22;3835;48.850;8.938;2023-02-18T12:11:51;13.40;99.90
7588;DHT22;3835;48.850;8.938;2023-02-18T12:14:20;13.40;99.90
7588;DHT22;3835;48.850;8.938;2023-02-18T12:17:03;13.50;99.90
7588;DHT22;3835;48.850;8.938;2023-02-18T12:19:44;13.50;99.90
7588;DHT22;3835;48.850;8.938;2023-02-18T12:22:20;13.40;99.90
7588;DHT22;3835;48.850;8.938;2023-02-18T12:25:03;13.30;99.90
7588;DHT22;3835;48.850;8.938;2023-02-18T12:27:42;13.00;99.90
7588;DHT22;3835;48.850;8.938;2023-02-18T12:30:37;12.90;99.90
7588;DHT22;3835;48.850;8.938;2023-02-18T12:33:14;12.90;99.90
7588;DHT22;3835;48.850;8.938;2023-02-18T12:35:54;12.90;99.90
7588;DHT22;3835;48.850;8.938;2023-02-18T12:38:53;12.90;99.90
7588;DHT22;3835;48.850;8.938;2023-02-18T12:41:31;12.80;99.90
7588;DHT22;3835;48.850;8.938;2023-02-18T12:44:07;12.80;99.90
7588;DHT22;3835;48.850;8.938;2023-02-18T12:46:49;12.80;99.90
7588;DHT22;3835;48.850;8.938;2023-02-18T12:49:45;12.80;99.90
7588;DHT22;3835;48.850;8.938;2023-02-18T12:52:26;12.80;99.90
7588;DHT22;3835;48.850;8.938;2023-02-18T12:57:47;12.70;99.90
7588;DHT22;3835;48.850;8.938;2023-02-18T13:07:04;12.70;99.90
7588;DHT22;3835;48.850;8.938;2023-02-18T13:09:43;12.70;99.90
7588;DHT22;3835;48.850;8.938;2023-02-18T13:12:16;12.70;99.90
7588;DHT22;3835;48.850;8.938;2023-02-18T13:14:50;12.60;99.90
7588;DHT22;3835;48.850;8.938;2023-02-18T13:17:22;12.60;99.90
7588;DHT22;3835;48.850;8.938;2023-02-18T13:19:53;12.50;99.90
7588;DHT22;3835;48.850;8.938;2023-02-18T13:22:25;12.50;99.90
7588;DHT22;3835;48.850;8.938;2023-02-18T13:24:55;12.60;99.90
7588;DHT22;3835;48.850;8.938;2023-02-18T13:27:28;12.60;99.90
7588;DHT22;3835;48.850;8.938;2023-02-18T13:30:09;12.60;99.90
7588;DHT22;3835;48.850;8.938;2023-02-18T13:32:49;12.60;99.90
7588;DHT22;3835;48.850;8.938;2023-02-18T13:35:19;12.70;99.90
7588;DHT22;3835;48.850;8.938;2023-02-18T13:38:01;12.80;99.90
7588;DHT22;3835;48.850;8.938;2023-02-18T13:40:30;12.80;99.90
7588;DHT22;3835;48.850;8.938;2023-02-18T13:43:16;12.90;99.90
7588;DHT22;3835;48.850;8.938;2023-02-18T13:46:02;12.90;99.90
7588;DHT22;3835;48.850;8.938;2023-02-18T13:48:29;12.90;99.90
7588;DHT22;3835;48.850;8.938;2023-02-18T13:51:01;12.80;99.90
7588;DHT22;3835;48.850;8.938;2023-02-18T13:53:34;12.90;99.90
7588;DHT22;3835;48.850;8.938;2023-02-18T13:56:08;12.90;99.90
7588;DHT22;3835;48.850;8.938;2023-02-18T13:58:40;13.00;99.90
7588;DHT22;3835;48.850;8.938;2023-02-18T14:01:21;13.00;99.90
7588;DHT22;3835;48.850;8.938;2023-02-18T14:03:57;13.00;99.90
7588;DHT22;3835;48.850;8.938;2023-02-18T14:06:25;13.00;99.90
7588;DHT22;3835;48.850;8.938;2023-02-18T14:09:33;13.10;99.90
7588;DHT22;3835;48.850;8.938;2023-02-18T14:11:55;13.20;99.90
7588;DHT22;3835;48.850;8.938;2023-02-18T14:14:39;13.20;99.90
7588;DHT22;3835;48.850;8.938;2023-02-18T14:17:14;13.10;99.90
7588;DHT22;3835;48.850;8.938;2023-02-18T14:19:53;13.10;99.90
7588;DHT22;3835;48.850;8.938;2023-02-18T14:22:27;13.20;99.90
7588;DHT22;3835;48.850;8.938;2023-02-18T14:24:56;13.20;99.90
7588;DHT22;3835;48.850;8.938;2023-02-18T14:27:27;12.90;99.90
7588;DHT22;3835;48.850;8.938;2023-02-18T14:29:54;12.90;99.90
7588;DHT22;3835;48.850;8.938;2023-02-18T14:32:21;13.00;99.90
7588;DHT22;3835;48.850;8.938;2023-02-18T14:35:16;13.00;99.90
7588;DHT22;3835;48.850;8.938;2023-02-18T14:37:56;13.00;99.90
7588;DHT22;3835;48.850;8.938;2023-02-18T14:43:37;13.10;99.90
7588;DHT22;3835;48.850;8.938;2023-02-18T14:46:14;12.90;99.90
7588;DHT22;3835;48.850;8.938;2023-02-18T14:49:00;12.80;99.90
7588;DHT22;3835;48.850;8.938;2023-02-18T14:51:33;12.80;99.90
7588;DHT22;3835;48.850;8.938;2023-02-18T14:54:03;12.70;99.90
7588;DHT22;3835;48.850;8.938;2023-02-18T14:56:32;12.70;99.90
7588;DHT22;3835;48.850;8.938;2023-02-18T14:59:04;12.70;99.90
7588;DHT22;3835;48.850;8.938;2023-02-18T15:01:34;12.60;99.90
7588;DHT22;3835;48.850;8.938;2023-02-18T15:04:02;12.70;99.90
7588;DHT22;3835;48.850;8.938;2023-02-18T15:06:31;12.70;99.90
7588;DHT22;3835;48.850;8.938;2023-02-18T15:08:59;12.80;99.90
7588;DHT22;3835;48.850;8.938;2023-02-18T15:11:34;12.60;99.90
7588;DHT22;3835;48.850;8.938;2023-02-18T15:14:07;12.60;99.90
7588;DHT22;3835;48.850;8.938;2023-02-18T15:16:35;12.50;99.90
7588;DHT22;3835;48.850;8.938;2023-02-18T15:19:04;12.30;99.90
7588;DHT22;3835;48.850;8.938;2023-02-18T15:21:34;12.40;99.90
7588;DHT22;3835;48.850;8.938;2023-02-18T15:24:06;12.30;99.90
7588;DHT22;3835;48.850;8.938;2023-02-18T15:26:35;12.30;99.90
7588;DHT22;3835;48.850;8.938;2023-02-18T15:29:04;12.20;99.90
7588;DHT22;3835;48.850;8.938;2023-02-18T15:31:37;12.30;99.90
7588;DHT22;3835;48.850;8.938;2023-02-18T15:34:30;12.40;99.90
7588;DHT22;3835;48.850;8.938;2023-02-18T15:36:59;12.30;99.90
7588;DHT22;3835;48.850;8.938;2023-02-18T15:39:27;12.20;99.90
7588;DHT22;3835;48.850;8.938;2023-02-18T15:41:56;12.20;99.90
7588;DHT22;3835;48.850;8.938;2023-02-18T15:44:26;12.20;99.90
7588;DHT22;3835;48.850;8.938;2023-02-18T15:46:59;12.20;99.90
7588;DHT22;3835;48.850;8.938;2023-02-18T15:49:26;12.20;99.90
7588;DHT22;3835;48.850;8.938;2023-02-18T15:51:56;12.20;99.90
7588;DHT22;3835;48.850;8.938;2023-02-18T15:54:23;12.10;99.90
7588;DHT22;3835;48.850;8.938;2023-02-18T15:56:52;12.00;99.90
7588;DHT22;3835;48.850;8.938;2023-02-18T15:59:23;11.90;99.90
7588;DHT22;3835;48.850;8.938;2023-02-18T16:01:52;11.90;99.90
7588;DHT22;3835;48.850;8.938;2023-02-18T16:04:23;11.80;99.90
7588;DHT22;3835;48.850;8.938;2023-02-18T16:06:51;11.90;99.90
7588;DHT22;3835;48.850;8.938;2023-02-18T16:09:22;11.80;99.90
7588;DHT22;3835;48.850;8.938;2023-02-18T16:11:52;11.80;99.90
7588;DHT22;3835;48.850;8.938;2023-02-18T16:14:25;11.70;99.90
7588;DHT22;3835;48.850;8.938;2023-02-18T16:17:06;11.50;99.90
7588;DHT22;3835;48.850;8.938;2023-02-18T16:19:46;11.40;99.90
7588;DHT22;3835;48.850;8.938;2023-02-18T16:22:33;11.40;99.90
7588;DHT22;3835;48.850;8.938;2023-02-18T16:25:09;11.40;99.90
7588;DHT22;3835;48.850;8.938;2023-02-18T16:27:47;11.30;99.90
7588;DHT22;3835;48.850;8.938;2023-02-18T16:30:16;11.30;99.90
7588;DHT22;3835;48.850;8.938;2023-02-18T16:32:43;11.30;99.90
7588;DHT22;3835;48.850;8.938;2023-02-18T16:35:12;11.20;99.90
7588;DHT22;3835;48.850;8.938;2023-02-18T16:37:40;11.30;99.90
7588;DHT22;3835;48.850;8.938;2023-02-18T16:40:25;11.30;99.90
7588;DHT22;3835;48.850;8.938;2023-02-18T16:42:53;11.30;99.90
7588;DHT22;3835;48.850;8.938;2023-02-18T16:45:20;11.30;99.90
7588;DHT22;3835;48.850;8.938;2023-02-18T16:47:49;11.30;99.90